sensor_id;sensor_type;location;lat;lon;timestamp;P1;durP1;ratioP1;P2;durP2;ratioP2
24008;SDS011;12217;50.792;4.372;2024-03-08T00:00:18;29.98;;;20.83;;
24008;SDS011;12217;50.792;4.372;2024-03-08T00:02:44;29.13;;;19.52;;
24008;SDS011;12217;50.792;4.372;2024-03-08T00:05:11;32.85;;;20.63;;
24008;SDS011;12217;50.792;4.372;2024-03-08T00:07:38;30.65;;;20.63;;
24008;SDS011;12217;50.792;4.372;2024-03-08T00:10:04;30.77;;;20.35;;
24008;SDS011;12217;50.792;4.372;2024-03-08T00:12:31;31.25;;;20.92;;
24008;SDS011;12217;50.792;4.372;2024-03-08T00:14:57;30.77;;;20.27;;
24008;SDS011;12217;50.792;4.372;2024-03-08T00:17:22;31.10;;;20.90;;
24008;SDS011;12217;50.792;4.372;2024-03-08T00:19:51;30.10;;;20.05;;
24008;SDS011;12217;50.792;4.372;2024-03-08T00:22:17;33.08;;;20.77;;
24008;SDS011;12217;50.792;4.372;2024-03-08T00:24:42;30.45;;;20.60;;
24008;SDS011;12217;50.792;4.372;2024-03-08T00:27:08;35.28;;;21.92;;
24008;SDS011;12217;50.792;4.372;2024-03-08T00:29:35;29.13;;;20.98;;
24008;SDS011;12217;50.792;4.372;2024-03-08T00:32:00;32.15;;;21.40;;
24008;SDS011;12217;50.792;4.372;2024-03-08T00:34:26;32.83;;;21.20;;
24008;SDS011;12217;50.792;4.372;2024-03-08T00:36:52;31.15;;;20.13;;
24008;SDS011;12217;50.792;4.372;2024-03-08T00:39:17;36.92;;;22.38;;
24008;SDS011;12217;50.792;4.372;2024-03-08T00:41:45;35.35;;;22.00;;
24008;SDS011;12217;50.792;4.372;2024-03-08T00:44:11;32.72;;;20.83;;
24008;SDS011;12217;50.792;4.372;2024-03-08T00:46:37;30.83;;;20.05;;
24008;SDS011;12217;50.792;4.372;2024-03-08T00:49:03;32.78;;;20.90;;
24008;SDS011;12217;50.792;4.372;2024-03-08T00:51:28;32.78;;;21.85;;
24008;SDS011;12217;50.792;4.372;2024-03-08T00:53:54;31.48;;;20.63;;
24008;SDS011;12217;50.792;4.372;2024-03-08T00:56:20;33.42;;;20.85;;
24008;SDS011;12217;50.792;4.372;2024-03-08T00:58:45;33.72;;;21.55;;
24008;SDS011;12217;50.792;4.372;2024-03-08T01:01:12;31.67;;;20.85;;
24008;SDS011;12217;50.792;4.372;2024-03-08T01:03:42;32.78;;;21.48;;
24008;SDS011;12217;50.792;4.372;2024-03-08T01:06:08;33.47;;;21.92;;
24008;SDS011;12217;50.792;4.372;2024-03-08T01:08:34;34.45;;;21.35;;
24008;SDS011;12217;50.792;4.372;2024-03-08T01:10:59;34.53;;;20.92;;
24008;SDS011;12217;50.792;4.372;2024-03-08T01:13:25;32.70;;;21.40;;
24008;SDS011;12217;50.792;4.372;2024-03-08T01:15:51;33.58;;;22.10;;
24008;SDS011;12217;50.792;4.372;2024-03-08T01:18:16;32.65;;;22.17;;
24008;SDS011;12217;50.792;4.372;2024-03-08T01:20:42;34.10;;;22.60;;
24008;SDS011;12217;50.792;4.372;2024-03-08T01:23:07;35.00;;;22.25;;
24008;SDS011;12217;50.792;4.372;2024-03-08T01:25:33;33.17;;;22.20;;
24008;SDS011;12217;50.792;4.372;2024-03-08T01:27:59;34.13;;;22.10;;
24008;SDS011;12217;50.792;4.372;2024-03-08T01:30:25;33.95;;;22.00;;
24008;SDS011;12217;50.792;4.372;2024-03-08T01:32:50;35.22;;;22.88;;
24008;SDS011;12217;50.792;4.372;2024-03-08T01:35:16;36.53;;;23.00;;
24008;SDS011;12217;50.792;4.372;2024-03-08T01:37:43;34.67;;;22.63;;
24008;SDS011;12217;50.792;4.372;2024-03-08T01:40:09;35.60;;;23.50;;
24008;SDS011;12217;50.792;4.372;2024-03-08T01:42:34;35.67;;;23.80;;
24008;SDS011;12217;50.792;4.372;2024-03-08T01:45:03;33.78;;;22.15;;
24008;SDS011;12217;50.792;4.372;2024-03-08T01:47:31;37.65;;;23.50;;
24008;SDS011;12217;50.792;4.372;2024-03-08T01:49:57;33.92;;;23.77;;
24008;SDS011;12217;50.792;4.372;2024-03-08T01:52:26;32.42;;;23.45;;
24008;SDS011;12217;50.792;4.372;2024-03-08T01:54:53;39.03;;;23.05;;
24008;SDS011;12217;50.792;4.372;2024-03-08T01:57:19;34.92;;;23.52;;
24008;SDS011;12217;50.792;4.372;2024-03-08T01:59:46;32.55;;;22.42;;
24008;SDS011;12217;50.792;4.372;2024-03-08T02:02:11;34.97;;;23.05;;
24008;SDS011;12217;50.792;4.372;2024-03-08T02:04:42;34.05;;;23.88;;
24008;SDS011;12217;50.792;4.372;2024-03-08T02:07:09;33.00;;;23.52;;
24008;SDS011;12217;50.792;4.372;2024-03-08T02:09:35;38.63;;;24.45;;
24008;SDS011;12217;50.792;4.372;2024-03-08T02:12:00;37.00;;;25.75;;
24008;SDS011;12217;50.792;4.372;2024-03-08T02:14:26;34.72;;;25.05;;
24008;SDS011;12217;50.792;4.372;2024-03-08T02:16:52;35.05;;;24.73;;
24008;SDS011;12217;50.792;4.372;2024-03-08T02:19:19;34.85;;;25.08;;
24008;SDS011;12217;50.792;4.372;2024-03-08T02:21:45;32.20;;;24.13;;
24008;SDS011;12217;50.792;4.372;2024-03-08T02:24:12;33.92;;;23.48;;
24008;SDS011;12217;50.792;4.372;2024-03-08T02:26:38;37.17;;;24.58;;
24008;SDS011;12217;50.792;4.372;2024-03-08T02:29:04;32.05;;;24.67;;
24008;SDS011;12217;50.792;4.372;2024-03-08T02:31:30;34.60;;;24.05;;
24008;SDS011;12217;50.792;4.372;2024-03-08T02:33:56;37.15;;;25.45;;
24008;SDS011;12217;50.792;4.372;2024-03-08T02:36:21;34.47;;;24.52;;
24008;SDS011;12217;50.792;4.372;2024-03-08T02:38:47;34.40;;;25.15;;
24008;SDS011;12217;50.792;4.372;2024-03-08T02:41:13;41.80;;;26.13;;
24008;SDS011;12217;50.792;4.372;2024-03-08T02:43:38;33.70;;;24.67;;
24008;SDS011;12217;50.792;4.372;2024-03-08T02:46:04;35.78;;;24.60;;
24008;SDS011;12217;50.792;4.372;2024-03-08T02:48:30;38.20;;;26.38;;
24008;SDS011;12217;50.792;4.372;2024-03-08T02:50:55;38.83;;;26.77;;
24008;SDS011;12217;50.792;4.372;2024-03-08T02:53:21;37.13;;;26.00;;
24008;SDS011;12217;50.792;4.372;2024-03-08T02:55:47;34.35;;;26.70;;
24008;SDS011;12217;50.792;4.372;2024-03-08T02:58:13;36.33;;;26.27;;
24008;SDS011;12217;50.792;4.372;2024-03-08T03:00:39;35.10;;;26.40;;
24008;SDS011;12217;50.792;4.372;2024-03-08T03:03:06;39.33;;;26.75;;
24008;SDS011;12217;50.792;4.372;2024-03-08T03:05:32;36.22;;;26.52;;
24008;SDS011;12217;50.792;4.372;2024-03-08T03:07:58;35.25;;;26.65;;
24008;SDS011;12217;50.792;4.372;2024-03-08T03:10:24;36.25;;;26.80;;
24008;SDS011;12217;50.792;4.372;2024-03-08T03:12:51;37.70;;;27.42;;
24008;SDS011;12217;50.792;4.372;2024-03-08T03:15:17;34.58;;;26.70;;
24008;SDS011;12217;50.792;4.372;2024-03-08T03:17:46;36.40;;;26.40;;
24008;SDS011;12217;50.792;4.372;2024-03-08T03:20:13;36.58;;;27.40;;
24008;SDS011;12217;50.792;4.372;2024-03-08T03:22:39;38.72;;;28.27;;
24008;SDS011;12217;50.792;4.372;2024-03-08T03:25:06;42.67;;;28.25;;
24008;SDS011;12217;50.792;4.372;2024-03-08T03:27:32;37.00;;;28.20;;
24008;SDS011;12217;50.792;4.372;2024-03-08T03:29:58;36.72;;;28.08;;
24008;SDS011;12217;50.792;4.372;2024-03-08T03:32:44;38.08;;;28.08;;
24008;SDS011;12217;50.792;4.372;2024-03-08T03:35:12;37.28;;;28.52;;
24008;SDS011;12217;50.792;4.372;2024-03-08T03:37:39;40.55;;;28.75;;
24008;SDS011;12217;50.792;4.372;2024-03-08T03:40:07;37.78;;;28.65;;
24008;SDS011;12217;50.792;4.372;2024-03-08T03:42:34;39.38;;;28.48;;
24008;SDS011;12217;50.792;4.372;2024-03-08T03:44:59;40.00;;;29.08;;
24008;SDS011;12217;50.792;4.372;2024-03-08T03:47:25;38.08;;;29.50;;
24008;SDS011;12217;50.792;4.372;2024-03-08T03:49:52;38.88;;;27.98;;
24008;SDS011;12217;50.792;4.372;2024-03-08T03:52:19;39.67;;;28.40;;
24008;SDS011;12217;50.792;4.372;2024-03-08T03:54:44;40.60;;;29.90;;
24008;SDS011;12217;50.792;4.372;2024-03-08T03:57:10;39.55;;;29.80;;
24008;SDS011;12217;50.792;4.372;2024-03-08T03:59:37;44.88;;;31.35;;
24008;SDS011;12217;50.792;4.372;2024-03-08T04:02:02;41.85;;;30.10;;
24008;SDS011;12217;50.792;4.372;2024-03-08T04:04:29;41.28;;;29.58;;
24008;SDS011;12217;50.792;4.372;2024-03-08T04:06:54;37.90;;;29.75;;
24008;SDS011;12217;50.792;4.372;2024-03-08T04:09:20;41.67;;;29.85;;
24008;SDS011;12217;50.792;4.372;2024-03-08T04:11:47;42.22;;;31.15;;
24008;SDS011;12217;50.792;4.372;2024-03-08T04:14:13;41.92;;;32.13;;
24008;SDS011;12217;50.792;4.372;2024-03-08T04:16:39;46.17;;;32.00;;
24008;SDS011;12217;50.792;4.372;2024-03-08T04:19:04;39.72;;;31.98;;
24008;SDS011;12217;50.792;4.372;2024-03-08T04:21:30;44.25;;;31.92;;
24008;SDS011;12217;50.792;4.372;2024-03-08T04:23:56;40.08;;;30.83;;
24008;SDS011;12217;50.792;4.372;2024-03-08T04:26:21;40.25;;;31.17;;
24008;SDS011;12217;50.792;4.372;2024-03-08T04:28:47;44.03;;;31.73;;
24008;SDS011;12217;50.792;4.372;2024-03-08T04:31:13;38.83;;;30.15;;
24008;SDS011;12217;50.792;4.372;2024-03-08T04:33:38;39.40;;;30.02;;
24008;SDS011;12217;50.792;4.372;2024-03-08T04:36:04;39.70;;;32.00;;
24008;SDS011;12217;50.792;4.372;2024-03-08T04:38:30;42.45;;;32.00;;
24008;SDS011;12217;50.792;4.372;2024-03-08T04:40:56;39.47;;;31.48;;
24008;SDS011;12217;50.792;4.372;2024-03-08T04:43:23;41.22;;;32.05;;
24008;SDS011;12217;50.792;4.372;2024-03-08T04:45:51;41.88;;;31.55;;
24008;SDS011;12217;50.792;4.372;2024-03-08T04:48:17;41.40;;;31.65;;
24008;SDS011;12217;50.792;4.372;2024-03-08T04:50:43;44.03;;;31.25;;
24008;SDS011;12217;50.792;4.372;2024-03-08T04:53:09;39.83;;;30.85;;
24008;SDS011;12217;50.792;4.372;2024-03-08T04:55:35;40.65;;;31.95;;
24008;SDS011;12217;50.792;4.372;2024-03-08T04:58:02;42.03;;;31.65;;
24008;SDS011;12217;50.792;4.372;2024-03-08T05:00:29;40.92;;;31.27;;
24008;SDS011;12217;50.792;4.372;2024-03-08T05:02:55;41.78;;;31.88;;
24008;SDS011;12217;50.792;4.372;2024-03-08T05:05:20;41.38;;;30.48;;
24008;SDS011;12217;50.792;4.372;2024-03-08T05:07:47;41.78;;;31.77;;
24008;SDS011;12217;50.792;4.372;2024-03-08T05:10:13;42.13;;;31.67;;
24008;SDS011;12217;50.792;4.372;2024-03-08T05:12:42;40.88;;;30.90;;
24008;SDS011;12217;50.792;4.372;2024-03-08T05:15:11;41.88;;;32.67;;
24008;SDS011;12217;50.792;4.372;2024-03-08T05:17:36;41.80;;;31.85;;
24008;SDS011;12217;50.792;4.372;2024-03-08T05:20:02;43.22;;;30.40;;
24008;SDS011;12217;50.792;4.372;2024-03-08T05:22:29;41.50;;;31.23;;
24008;SDS011;12217;50.792;4.372;2024-03-08T05:24:54;41.90;;;32.00;;
24008;SDS011;12217;50.792;4.372;2024-03-08T05:27:20;42.13;;;31.55;;
24008;SDS011;12217;50.792;4.372;2024-03-08T05:29:46;44.40;;;31.50;;
24008;SDS011;12217;50.792;4.372;2024-03-08T05:32:11;41.45;;;31.25;;
24008;SDS011;12217;50.792;4.372;2024-03-08T05:34:37;40.42;;;31.42;;
24008;SDS011;12217;50.792;4.372;2024-03-08T05:37:03;43.83;;;31.00;;
24008;SDS011;12217;50.792;4.372;2024-03-08T05:39:29;43.00;;;32.55;;
24008;SDS011;12217;50.792;4.372;2024-03-08T05:41:55;44.20;;;32.70;;
24008;SDS011;12217;50.792;4.372;2024-03-08T05:44:21;43.80;;;31.90;;
24008;SDS011;12217;50.792;4.372;2024-03-08T05:46:47;44.50;;;31.90;;
24008;SDS011;12217;50.792;4.372;2024-03-08T05:49:13;41.78;;;31.20;;
24008;SDS011;12217;50.792;4.372;2024-03-08T05:51:38;41.80;;;30.63;;
24008;SDS011;12217;50.792;4.372;2024-03-08T05:54:05;40.72;;;31.25;;
24008;SDS011;12217;50.792;4.372;2024-03-08T05:56:35;40.60;;;30.67;;
24008;SDS011;12217;50.792;4.372;2024-03-08T05:59:01;42.55;;;31.13;;
24008;SDS011;12217;50.792;4.372;2024-03-08T06:01:27;41.80;;;30.88;;
24008;SDS011;12217;50.792;4.372;2024-03-08T06:03:53;42.05;;;31.17;;
24008;SDS011;12217;50.792;4.372;2024-03-08T06:06:21;44.40;;;31.50;;
24008;SDS011;12217;50.792;4.372;2024-03-08T06:08:47;46.05;;;33.13;;
24008;SDS011;12217;50.792;4.372;2024-03-08T06:11:16;42.00;;;30.63;;
24008;SDS011;12217;50.792;4.372;2024-03-08T06:13:44;41.47;;;30.58;;
24008;SDS011;12217;50.792;4.372;2024-03-08T06:16:10;42.58;;;30.40;;
24008;SDS011;12217;50.792;4.372;2024-03-08T06:18:35;42.85;;;31.42;;
24008;SDS011;12217;50.792;4.372;2024-03-08T06:21:07;47.30;;;31.77;;
24008;SDS011;12217;50.792;4.372;2024-03-08T06:23:36;43.67;;;31.65;;
24008;SDS011;12217;50.792;4.372;2024-03-08T06:26:03;44.60;;;31.83;;
24008;SDS011;12217;50.792;4.372;2024-03-08T06:28:29;42.83;;;30.88;;
24008;SDS011;12217;50.792;4.372;2024-03-08T06:30:57;40.72;;;29.83;;
24008;SDS011;12217;50.792;4.372;2024-03-08T06:33:23;41.53;;;31.35;;
24008;SDS011;12217;50.792;4.372;2024-03-08T06:35:51;43.92;;;31.20;;
24008;SDS011;12217;50.792;4.372;2024-03-08T06:38:25;43.83;;;32.60;;
24008;SDS011;12217;50.792;4.372;2024-03-08T06:40:51;42.72;;;31.38;;
24008;SDS011;12217;50.792;4.372;2024-03-08T06:43:18;43.30;;;31.05;;
24008;SDS011;12217;50.792;4.372;2024-03-08T06:45:47;41.67;;;30.63;;
24008;SDS011;12217;50.792;4.372;2024-03-08T06:48:16;40.65;;;30.92;;
24008;SDS011;12217;50.792;4.372;2024-03-08T06:50:45;43.72;;;31.15;;
24008;SDS011;12217;50.792;4.372;2024-03-08T06:53:11;42.92;;;30.67;;
24008;SDS011;12217;50.792;4.372;2024-03-08T06:55:38;42.97;;;30.42;;
24008;SDS011;12217;50.792;4.372;2024-03-08T06:58:04;43.22;;;31.92;;
24008;SDS011;12217;50.792;4.372;2024-03-08T07:00:31;41.30;;;31.25;;
24008;SDS011;12217;50.792;4.372;2024-03-08T07:02:57;42.83;;;31.33;;
24008;SDS011;12217;50.792;4.372;2024-03-08T07:05:26;44.53;;;31.20;;
24008;SDS011;12217;50.792;4.372;2024-03-08T07:07:52;43.25;;;31.27;;
24008;SDS011;12217;50.792;4.372;2024-03-08T07:10:20;42.45;;;31.25;;
24008;SDS011;12217;50.792;4.372;2024-03-08T07:12:49;46.92;;;31.27;;
24008;SDS011;12217;50.792;4.372;2024-03-08T07:15:15;45.40;;;30.58;;
24008;SDS011;12217;50.792;4.372;2024-03-08T07:17:44;43.50;;;30.30;;
24008;SDS011;12217;50.792;4.372;2024-03-08T07:20:13;41.83;;;28.77;;
24008;SDS011;12217;50.792;4.372;2024-03-08T07:22:43;44.22;;;29.35;;
24008;SDS011;12217;50.792;4.372;2024-03-08T07:25:12;41.10;;;30.70;;
24008;SDS011;12217;50.792;4.372;2024-03-08T07:27:49;40.50;;;29.48;;
24008;SDS011;12217;50.792;4.372;2024-03-08T07:30:18;41.80;;;29.77;;
24008;SDS011;12217;50.792;4.372;2024-03-08T07:33:06;43.63;;;29.98;;
24008;SDS011;12217;50.792;4.372;2024-03-08T07:35:32;39.78;;;28.52;;
24008;SDS011;12217;50.792;4.372;2024-03-08T07:38:02;40.80;;;29.02;;
24008;SDS011;12217;50.792;4.372;2024-03-08T07:40:31;41.70;;;28.38;;
24008;SDS011;12217;50.792;4.372;2024-03-08T07:43:00;42.92;;;29.80;;
24008;SDS011;12217;50.792;4.372;2024-03-08T07:45:26;41.08;;;28.63;;
24008;SDS011;12217;50.792;4.372;2024-03-08T07:47:51;40.13;;;28.50;;
24008;SDS011;12217;50.792;4.372;2024-03-08T07:50:18;43.97;;;28.50;;
24008;SDS011;12217;50.792;4.372;2024-03-08T07:52:44;38.88;;;28.42;;
24008;SDS011;12217;50.792;4.372;2024-03-08T07:55:10;40.40;;;28.65;;
24008;SDS011;12217;50.792;4.372;2024-03-08T07:57:35;39.60;;;27.60;;
24008;SDS011;12217;50.792;4.372;2024-03-08T08:00:06;39.90;;;26.63;;
24008;SDS011;12217;50.792;4.372;2024-03-08T08:02:33;40.83;;;27.30;;
24008;SDS011;12217;50.792;4.372;2024-03-08T08:05:00;40.08;;;27.90;;
24008;SDS011;12217;50.792;4.372;2024-03-08T08:07:26;42.80;;;27.13;;
24008;SDS011;12217;50.792;4.372;2024-03-08T08:09:52;40.88;;;26.75;;
24008;SDS011;12217;50.792;4.372;2024-03-08T08:12:18;40.13;;;27.60;;
24008;SDS011;12217;50.792;4.372;2024-03-08T08:14:44;40.10;;;26.52;;
24008;SDS011;12217;50.792;4.372;2024-03-08T08:17:09;39.25;;;27.77;;
24008;SDS011;12217;50.792;4.372;2024-03-08T08:19:36;39.10;;;26.83;;
24008;SDS011;12217;50.792;4.372;2024-03-08T08:22:01;37.95;;;27.27;;
24008;SDS011;12217;50.792;4.372;2024-03-08T08:24:27;37.13;;;25.88;;
24008;SDS011;12217;50.792;4.372;2024-03-08T08:26:53;37.22;;;26.60;;
24008;SDS011;12217;50.792;4.372;2024-03-08T08:29:19;38.50;;;25.88;;
24008;SDS011;12217;50.792;4.372;2024-03-08T08:31:45;36.55;;;26.13;;
24008;SDS011;12217;50.792;4.372;2024-03-08T08:34:11;37.95;;;26.08;;
24008;SDS011;12217;50.792;4.372;2024-03-08T08:36:38;38.85;;;25.70;;
24008;SDS011;12217;50.792;4.372;2024-03-08T08:39:05;37.85;;;26.20;;
24008;SDS011;12217;50.792;4.372;2024-03-08T08:41:37;36.08;;;25.85;;
24008;SDS011;12217;50.792;4.372;2024-03-08T08:44:03;33.95;;;24.73;;
24008;SDS011;12217;50.792;4.372;2024-03-08T08:46:28;35.67;;;24.58;;
24008;SDS011;12217;50.792;4.372;2024-03-08T08:48:54;33.35;;;24.70;;
24008;SDS011;12217;50.792;4.372;2024-03-08T08:51:20;36.33;;;25.10;;
24008;SDS011;12217;50.792;4.372;2024-03-08T08:53:45;34.22;;;25.13;;
24008;SDS011;12217;50.792;4.372;2024-03-08T08:56:13;34.38;;;24.98;;
24008;SDS011;12217;50.792;4.372;2024-03-08T08:58:39;36.10;;;24.95;;
24008;SDS011;12217;50.792;4.372;2024-03-08T09:01:06;36.78;;;25.75;;
24008;SDS011;12217;50.792;4.372;2024-03-08T09:03:32;33.85;;;23.83;;
24008;SDS011;12217;50.792;4.372;2024-03-08T09:05:59;31.33;;;23.60;;
24008;SDS011;12217;50.792;4.372;2024-03-08T09:08:27;31.48;;;23.45;;
24008;SDS011;12217;50.792;4.372;2024-03-08T09:10:53;35.47;;;24.02;;
24008;SDS011;12217;50.792;4.372;2024-03-08T09:13:19;35.45;;;25.17;;
24008;SDS011;12217;50.792;4.372;2024-03-08T09:15:45;34.20;;;23.15;;
24008;SDS011;12217;50.792;4.372;2024-03-08T09:18:10;32.38;;;23.00;;
24008;SDS011;12217;50.792;4.372;2024-03-08T09:20:36;33.83;;;23.80;;
24008;SDS011;12217;50.792;4.372;2024-03-08T09:23:02;31.80;;;23.55;;
24008;SDS011;12217;50.792;4.372;2024-03-08T09:25:29;32.75;;;23.73;;
24008;SDS011;12217;50.792;4.372;2024-03-08T09:27:54;31.67;;;22.75;;
24008;SDS011;12217;50.792;4.372;2024-03-08T09:30:20;30.73;;;23.38;;
24008;SDS011;12217;50.792;4.372;2024-03-08T09:32:46;32.88;;;23.13;;
24008;SDS011;12217;50.792;4.372;2024-03-08T09:35:12;35.13;;;24.35;;
24008;SDS011;12217;50.792;4.372;2024-03-08T09:37:38;32.03;;;22.92;;
24008;SDS011;12217;50.792;4.372;2024-03-08T09:40:04;33.25;;;23.00;;
24008;SDS011;12217;50.792;4.372;2024-03-08T09:42:34;30.83;;;23.00;;
24008;SDS011;12217;50.792;4.372;2024-03-08T09:45:03;31.17;;;23.20;;
24008;SDS011;12217;50.792;4.372;2024-03-08T09:47:33;34.28;;;22.63;;
24008;SDS011;12217;50.792;4.372;2024-03-08T09:50:04;33.08;;;22.50;;
24008;SDS011;12217;50.792;4.372;2024-03-08T09:52:35;33.45;;;23.30;;
24008;SDS011;12217;50.792;4.372;2024-03-08T09:55:05;31.52;;;23.02;;
24008;SDS011;12217;50.792;4.372;2024-03-08T09:57:32;31.08;;;23.80;;
24008;SDS011;12217;50.792;4.372;2024-03-08T09:59:58;30.50;;;21.48;;
24008;SDS011;12217;50.792;4.372;2024-03-08T10:02:24;28.50;;;21.95;;
24008;SDS011;12217;50.792;4.372;2024-03-08T10:04:50;31.73;;;23.35;;
24008;SDS011;12217;50.792;4.372;2024-03-08T10:07:18;32.30;;;23.17;;
24008;SDS011;12217;50.792;4.372;2024-03-08T10:09:44;29.65;;;22.35;;
24008;SDS011;12217;50.792;4.372;2024-03-08T10:12:15;27.55;;;20.45;;
24008;SDS011;12217;50.792;4.372;2024-03-08T10:14:42;32.25;;;22.95;;
24008;SDS011;12217;50.792;4.372;2024-03-08T10:17:08;29.08;;;21.23;;
24008;SDS011;12217;50.792;4.372;2024-03-08T10:19:34;27.52;;;21.90;;
24008;SDS011;12217;50.792;4.372;2024-03-08T10:22:00;29.30;;;22.15;;
24008;SDS011;12217;50.792;4.372;2024-03-08T10:24:25;31.70;;;22.58;;
24008;SDS011;12217;50.792;4.372;2024-03-08T10:27:00;30.20;;;22.60;;
24008;SDS011;12217;50.792;4.372;2024-03-08T10:29:33;30.55;;;22.98;;
24008;SDS011;12217;50.792;4.372;2024-03-08T10:31:59;29.67;;;21.05;;
24008;SDS011;12217;50.792;4.372;2024-03-08T10:34:26;29.27;;;21.60;;
24008;SDS011;12217;50.792;4.372;2024-03-08T10:36:52;31.52;;;22.30;;
24008;SDS011;12217;50.792;4.372;2024-03-08T10:39:21;29.92;;;21.63;;
24008;SDS011;12217;50.792;4.372;2024-03-08T10:41:52;28.48;;;22.48;;
24008;SDS011;12217;50.792;4.372;2024-03-08T10:49:37;27.23;;;20.35;;
24008;SDS011;12217;50.792;4.372;2024-03-08T10:52:04;28.77;;;21.92;;
24008;SDS011;12217;50.792;4.372;2024-03-08T10:54:33;28.98;;;21.58;;
24008;SDS011;12217;50.792;4.372;2024-03-08T10:57:03;26.45;;;21.05;;
24008;SDS011;12217;50.792;4.372;2024-03-08T10:59:30;31.95;;;22.85;;
24008;SDS011;12217;50.792;4.372;2024-03-08T11:01:58;27.92;;;21.20;;
24008;SDS011;12217;50.792;4.372;2024-03-08T11:04:24;29.42;;;21.45;;
24008;SDS011;12217;50.792;4.372;2024-03-08T11:06:50;28.52;;;20.85;;
24008;SDS011;12217;50.792;4.372;2024-03-08T11:09:29;28.23;;;21.90;;
24008;SDS011;12217;50.792;4.372;2024-03-08T11:14:48;27.55;;;21.60;;
24008;SDS011;12217;50.792;4.372;2024-03-08T11:17:15;26.48;;;20.33;;
24008;SDS011;12217;50.792;4.372;2024-03-08T11:19:47;25.73;;;21.00;;
24008;SDS011;12217;50.792;4.372;2024-03-08T11:22:23;24.60;;;18.98;;
24008;SDS011;12217;50.792;4.372;2024-03-08T11:24:52;25.67;;;19.98;;
24008;SDS011;12217;50.792;4.372;2024-03-08T11:27:19;25.80;;;19.98;;
24008;SDS011;12217;50.792;4.372;2024-03-08T11:30:00;26.48;;;20.20;;
24008;SDS011;12217;50.792;4.372;2024-03-08T11:32:35;22.23;;;19.05;;
24008;SDS011;12217;50.792;4.372;2024-03-08T11:35:03;22.23;;;19.35;;
24008;SDS011;12217;50.792;4.372;2024-03-08T11:37:33;23.25;;;19.85;;
24008;SDS011;12217;50.792;4.372;2024-03-08T11:40:02;22.23;;;18.00;;
24008;SDS011;12217;50.792;4.372;2024-03-08T11:42:39;26.15;;;20.10;;
24008;SDS011;12217;50.792;4.372;2024-03-08T11:45:09;23.83;;;19.17;;
24008;SDS011;12217;50.792;4.372;2024-03-08T11:47:36;22.63;;;18.40;;
24008;SDS011;12217;50.792;4.372;2024-03-08T11:50:05;23.38;;;19.38;;
24008;SDS011;12217;50.792;4.372;2024-03-08T11:52:36;24.33;;;19.80;;
24008;SDS011;12217;50.792;4.372;2024-03-08T11:55:02;26.05;;;18.95;;
24008;SDS011;12217;50.792;4.372;2024-03-08T11:57:30;23.02;;;18.10;;
24008;SDS011;12217;50.792;4.372;2024-03-08T11:59:57;22.63;;;19.23;;
24008;SDS011;12217;50.792;4.372;2024-03-08T12:02:30;25.98;;;18.55;;
24008;SDS011;12217;50.792;4.372;2024-03-08T12:04:59;24.73;;;19.25;;
24008;SDS011;12217;50.792;4.372;2024-03-08T12:07:28;22.17;;;19.08;;
24008;SDS011;12217;50.792;4.372;2024-03-08T12:10:36;23.75;;;18.95;;
24008;SDS011;12217;50.792;4.372;2024-03-08T12:12:48;23.73;;;18.98;;
24008;SDS011;12217;50.792;4.372;2024-03-08T12:15:16;23.00;;;18.77;;
24008;SDS011;12217;50.792;4.372;2024-03-08T12:17:48;22.48;;;18.65;;
24008;SDS011;12217;50.792;4.372;2024-03-08T12:20:16;22.67;;;17.02;;
24008;SDS011;12217;50.792;4.372;2024-03-08T12:22:44;21.35;;;17.38;;
24008;SDS011;12217;50.792;4.372;2024-03-08T12:25:10;22.65;;;18.65;;
24008;SDS011;12217;50.792;4.372;2024-03-08T12:27:40;21.05;;;18.20;;
24008;SDS011;12217;50.792;4.372;2024-03-08T12:33:01;23.77;;;17.35;;
24008;SDS011;12217;50.792;4.372;2024-03-08T12:35:27;19.75;;;17.10;;
24008;SDS011;12217;50.792;4.372;2024-03-08T12:37:54;20.98;;;16.98;;
24008;SDS011;12217;50.792;4.372;2024-03-08T12:42:54;22.13;;;17.02;;
24008;SDS011;12217;50.792;4.372;2024-03-08T12:45:20;20.80;;;17.48;;
24008;SDS011;12217;50.792;4.372;2024-03-08T12:47:49;22.77;;;17.08;;
24008;SDS011;12217;50.792;4.372;2024-03-08T12:50:18;24.35;;;17.20;;
24008;SDS011;12217;50.792;4.372;2024-03-08T12:52:47;23.10;;;18.55;;
24008;SDS011;12217;50.792;4.372;2024-03-08T12:55:14;21.90;;;18.00;;
24008;SDS011;12217;50.792;4.372;2024-03-08T12:57:43;23.05;;;17.67;;
24008;SDS011;12217;50.792;4.372;2024-03-08T13:00:09;25.30;;;17.88;;
24008;SDS011;12217;50.792;4.372;2024-03-08T13:02:38;23.13;;;18.10;;
24008;SDS011;12217;50.792;4.372;2024-03-08T13:05:05;21.05;;;17.35;;
24008;SDS011;12217;50.792;4.372;2024-03-08T13:07:31;20.48;;;17.20;;
24008;SDS011;12217;50.792;4.372;2024-03-08T13:09:57;22.13;;;17.83;;
24008;SDS011;12217;50.792;4.372;2024-03-08T13:12:25;21.48;;;16.52;;
24008;SDS011;12217;50.792;4.372;2024-03-08T13:14:50;21.10;;;16.70;;
24008;SDS011;12217;50.792;4.372;2024-03-08T13:17:16;21.17;;;16.50;;
24008;SDS011;12217;50.792;4.372;2024-03-08T13:19:46;19.75;;;15.65;;
24008;SDS011;12217;50.792;4.372;2024-03-08T13:22:11;21.13;;;17.67;;
24008;SDS011;12217;50.792;4.372;2024-03-08T13:24:38;21.10;;;15.23;;
24008;SDS011;12217;50.792;4.372;2024-03-08T13:27:07;20.20;;;16.42;;
24008;SDS011;12217;50.792;4.372;2024-03-08T13:29:47;22.20;;;17.58;;
24008;SDS011;12217;50.792;4.372;2024-03-08T13:32:14;23.85;;;18.10;;
24008;SDS011;12217;50.792;4.372;2024-03-08T13:34:41;21.38;;;17.08;;
24008;SDS011;12217;50.792;4.372;2024-03-08T13:37:07;19.38;;;16.33;;
24008;SDS011;12217;50.792;4.372;2024-03-08T13:39:34;20.45;;;17.58;;
24008;SDS011;12217;50.792;4.372;2024-03-08T13:42:15;21.13;;;17.13;;
24008;SDS011;12217;50.792;4.372;2024-03-08T13:44:45;20.83;;;16.42;;
24008;SDS011;12217;50.792;4.372;2024-03-08T13:47:14;21.73;;;16.73;;
24008;SDS011;12217;50.792;4.372;2024-03-08T13:49:41;20.58;;;16.13;;
24008;SDS011;12217;50.792;4.372;2024-03-08T13:52:08;19.63;;;16.30;;
24008;SDS011;12217;50.792;4.372;2024-03-08T13:54:35;21.10;;;16.10;;
24008;SDS011;12217;50.792;4.372;2024-03-08T13:57:01;18.23;;;15.13;;
24008;SDS011;12217;50.792;4.372;2024-03-08T13:59:31;18.95;;;16.33;;
24008;SDS011;12217;50.792;4.372;2024-03-08T14:02:01;21.25;;;15.93;;
24008;SDS011;12217;50.792;4.372;2024-03-08T14:04:30;21.67;;;16.08;;
24008;SDS011;12217;50.792;4.372;2024-03-08T14:06:56;19.38;;;15.90;;
24008;SDS011;12217;50.792;4.372;2024-03-08T14:09:26;17.80;;;14.95;;
24008;SDS011;12217;50.792;4.372;2024-03-08T14:11:54;19.00;;;15.00;;
24008;SDS011;12217;50.792;4.372;2024-03-08T14:14:23;18.52;;;15.45;;
24008;SDS011;12217;50.792;4.372;2024-03-08T14:16:49;16.23;;;14.05;;
24008;SDS011;12217;50.792;4.372;2024-03-08T14:19:19;18.45;;;14.15;;
24008;SDS011;12217;50.792;4.372;2024-03-08T14:21:45;19.20;;;15.30;;
24008;SDS011;12217;50.792;4.372;2024-03-08T14:24:12;20.02;;;15.32;;
24008;SDS011;12217;50.792;4.372;2024-03-08T14:26:39;17.83;;;14.43;;
24008;SDS011;12217;50.792;4.372;2024-03-08T14:29:07;16.25;;;13.98;;
24008;SDS011;12217;50.792;4.372;2024-03-08T14:31:34;16.02;;;13.95;;
24008;SDS011;12217;50.792;4.372;2024-03-08T14:34:01;17.63;;;14.18;;